sensor_id;sensor_type;location;lat;lon;timestamp;temperature;humidity
23305;DHT22;11821;51.456;8.844;2023-04-24T00:00:51;13.90;99.90
23305;DHT22;11821;51.456;8.844;2023-04-24T00:03:18;13.90;99.90
23305;DHT22;11821;51.456;8.844;2023-04-24T00:05:47;13.90;99.90
23305;DHT22;11821;51.456;8.844;2023-04-24T00:08:13;13.80;99.90
23305;DHT22;11821;51.456;8.844;2023-04-24T00:10:40;13.80;99.90
23305;DHT22;11821;51.456;8.844;2023-04-24T00:13:07;13.60;99.90
23305;DHT22;11821;51.456;8.844;2023-04-24T00:15:33;13.60;99.90
23305;DHT22;11821;51.456;8.844;2023-04-24T00:17:59;13.50;99.90
23305;DHT22;11821;51.456;8.844;2023-04-24T00:20:27;13.50;99.90
23305;DHT22;11821;51.456;8.844;2023-04-24T00:22:58;13.50;99.90
23305;DHT22;11821;51.456;8.844;2023-04-24T00:25:25;13.40;99.90
23305;DHT22;11821;51.456;8.844;2023-04-24T00:27:51;13.40;99.90
23305;DHT22;11821;51.456;8.844;2023-04-24T00:30:17;13.40;99.90
23305;DHT22;11821;51.456;8.844;2023-04-24T00:32:44;13.30;99.90
23305;DHT22;11821;51.456;8.844;2023-04-24T00:35:10;13.20;99.90
23305;DHT22;11821;51.456;8.844;2023-04-24T00:37:36;13.40;99.90
23305;DHT22;11821;51.456;8.844;2023-04-24T00:40:03;13.40;99.90
23305;DHT22;11821;51.456;8.844;2023-04-24T00:42:29;13.30;99.90
23305;DHT22;11821;51.456;8.844;2023-04-24T00:44:56;13.30;99.90
23305;DHT22;11821;51.456;8.844;2023-04-24T00:47:23;13.30;99.90
23305;DHT22;11821;51.456;8.844;2023-04-24T00:49:51;13.30;99.90
23305;DHT22;11821;51.456;8.844;2023-04-24T00:52:18;13.30;99.90
23305;DHT22;11821;51.456;8.844;2023-04-24T00:54:46;13.20;99.90
23305;DHT22;11821;51.456;8.844;2023-04-24T00:57:14;13.20;99.90
23305;DHT22;11821;51.456;8.844;2023-04-24T00:59:44;13.10;99.90
23305;DHT22;11821;51.456;8.844;2023-04-24T01:02:11;13.00;99.90
23305;DHT22;11821;51.456;8.844;2023-04-24T01:04:39;12.90;99.90
23305;DHT22;11821;51.456;8.844;2023-04-24T01:07:06;12.90;99.90
23305;DHT22;11821;51.456;8.844;2023-04-24T01:09:39;12.90;99.90
23305;DHT22;11821;51.456;8.844;2023-04-24T01:12:07;12.80;99.90
23305;DHT22;11821;51.456;8.844;2023-04-24T01:14:37;12.80;99.90
23305;DHT22;11821;51.456;8.844;2023-04-24T01:17:04;12.60;99.90
23305;DHT22;11821;51.456;8.844;2023-04-24T01:19:30;12.50;99.90
23305;DHT22;11821;51.456;8.844;2023-04-24T01:21:58;12.40;99.90
23305;DHT22;11821;51.456;8.844;2023-04-24T01:24:25;12.40;99.90
23305;DHT22;11821;51.456;8.844;2023-04-24T01:29:19;12.50;99.90
23305;DHT22;11821;51.456;8.844;2023-04-24T01:31:45;12.50;99.90
23305;DHT22;11821;51.456;8.844;2023-04-24T01:34:12;12.50;99.90
23305;DHT22;11821;51.456;8.844;2023-04-24T01:43:59;12.60;99.90
23305;DHT22;11821;51.456;8.844;2023-04-24T01:46:26;12.50;99.90
23305;DHT22;11821;51.456;8.844;2023-04-24T01:48:52;12.50;99.90
23305;DHT22;11821;51.456;8.844;2023-04-24T01:53:46;12.60;99.90
23305;DHT22;11821;51.456;8.844;2023-04-24T06:03:00;12.70;99.90
23305;DHT22;11821;51.456;8.844;2023-04-24T06:05:27;12.70;99.90
23305;DHT22;11821;51.456;8.844;2023-04-24T06:07:53;12.60;99.90
23305;DHT22;11821;51.456;8.844;2023-04-24T06:10:23;12.50;99.90
23305;DHT22;11821;51.456;8.844;2023-04-24T06:12:49;12.40;99.90
23305;DHT22;11821;51.456;8.844;2023-04-24T06:15:17;12.30;99.90
23305;DHT22;11821;51.456;8.844;2023-04-24T06:17:53;12.40;99.90
23305;DHT22;11821;51.456;8.844;2023-04-24T06:20:20;12.50;99.90
23305;DHT22;11821;51.456;8.844;2023-04-24T06:59:29;12.50;99.90
23305;DHT22;11821;51.456;8.844;2023-04-24T07:01:56;13.20;99.90
23305;DHT22;11821;51.456;8.844;2023-04-24T07:04:23;13.20;99.90
23305;DHT22;11821;51.456;8.844;2023-04-24T07:06:50;13.20;99.90
23305;DHT22;11821;51.456;8.844;2023-04-24T07:09:17;13.50;99.90
23305;DHT22;11821;51.456;8.844;2023-04-24T07:11:45;13.60;99.90
23305;DHT22;11821;51.456;8.844;2023-04-24T07:14:12;13.60;99.90
23305;DHT22;11821;51.456;8.844;2023-04-24T07:16:38;13.60;99.90
23305;DHT22;11821;51.456;8.844;2023-04-24T07:28:52;13.60;99.90
23305;DHT22;11821;51.456;8.844;2023-04-24T07:38:43;13.70;99.90
23305;DHT22;11821;51.456;8.844;2023-04-24T07:41:09;14.10;99.90
23305;DHT22;11821;51.456;8.844;2023-04-24T07:46:02;14.30;99.90
23305;DHT22;11821;51.456;8.844;2023-04-24T07:50:55;14.80;99.90
23305;DHT22;11821;51.456;8.844;2023-04-24T07:53:21;14.90;99.90
23305;DHT22;11821;51.456;8.844;2023-04-24T07:55:48;14.90;99.90
23305;DHT22;11821;51.456;8.844;2023-04-24T07:58:14;15.00;99.90
23305;DHT22;11821;51.456;8.844;2023-04-24T08:00:41;14.90;99.90
23305;DHT22;11821;51.456;8.844;2023-04-24T08:03:07;14.90;99.90
23305;DHT22;11821;51.456;8.844;2023-04-24T08:05:33;14.50;99.90
23305;DHT22;11821;51.456;8.844;2023-04-24T08:08:00;14.40;99.90
23305;DHT22;11821;51.456;8.844;2023-04-24T08:10:26;14.40;99.90
23305;DHT22;11821;51.456;8.844;2023-04-24T08:12:52;14.10;99.90
23305;DHT22;11821;51.456;8.844;2023-04-24T08:15:18;14.20;99.90
23305;DHT22;11821;51.456;8.844;2023-04-24T08:17:45;14.40;99.90
23305;DHT22;11821;51.456;8.844;2023-04-24T08:20:12;14.70;99.90
23305;DHT22;11821;51.456;8.844;2023-04-24T08:22:42;14.70;99.90
23305;DHT22;11821;51.456;8.844;2023-04-24T08:25:10;15.00;99.90
23305;DHT22;11821;51.456;8.844;2023-04-24T08:27:36;14.90;99.90
23305;DHT22;11821;51.456;8.844;2023-04-24T08:30:04;14.80;99.90
23305;DHT22;11821;51.456;8.844;2023-04-24T08:32:31;14.80;99.90
23305;DHT22;11821;51.456;8.844;2023-04-24T08:34:57;14.80;99.90
23305;DHT22;11821;51.456;8.844;2023-04-24T08:37:25;14.70;99.90
23305;DHT22;11821;51.456;8.844;2023-04-24T08:39:51;14.80;99.90
23305;DHT22;11821;51.456;8.844;2023-04-24T08:42:19;14.80;99.90
23305;DHT22;11821;51.456;8.844;2023-04-24T08:44:48;14.70;99.90
23305;DHT22;11821;51.456;8.844;2023-04-24T08:47:15;14.70;99.90
23305;DHT22;11821;51.456;8.844;2023-04-24T08:49:42;14.90;99.90
23305;DHT22;11821;51.456;8.844;2023-04-24T08:52:09;15.00;99.90
23305;DHT22;11821;51.456;8.844;2023-04-24T08:54:36;15.00;99.90
23305;DHT22;11821;51.456;8.844;2023-04-24T08:57:03;14.80;99.90
23305;DHT22;11821;51.456;8.844;2023-04-24T08:59:30;14.80;99.90
23305;DHT22;11821;51.456;8.844;2023-04-24T09:01:57;14.70;99.90
23305;DHT22;11821;51.456;8.844;2023-04-24T09:04:25;14.70;99.90
23305;DHT22;11821;51.456;8.844;2023-04-24T09:06:55;14.70;99.90
23305;DHT22;11821;51.456;8.844;2023-04-24T09:09:23;14.60;99.90
23305;DHT22;11821;51.456;8.844;2023-04-24T09:11:51;14.80;99.90
23305;DHT22;11821;51.456;8.844;2023-04-24T09:14:19;14.80;99.90
23305;DHT22;11821;51.456;8.844;2023-04-24T09:16:46;15.00;99.90
23305;DHT22;11821;51.456;8.844;2023-04-24T09:19:13;15.10;99.90
23305;DHT22;11821;51.456;8.844;2023-04-24T09:21:39;15.00;99.90
23305;DHT22;11821;51.456;8.844;2023-04-24T09:24:15;14.90;99.90
23305;DHT22;11821;51.456;8.844;2023-04-24T09:26:44;14.80;99.90
23305;DHT22;11821;51.456;8.844;2023-04-24T09:29:15;14.80;99.90
23305;DHT22;11821;51.456;8.844;2023-04-24T09:31:43;14.80;99.90
23305;DHT22;11821;51.456;8.844;2023-04-24T09:34:10;15.00;99.90
23305;DHT22;11821;51.456;8.844;2023-04-24T09:36:42;15.00;99.90
23305;DHT22;11821;51.456;8.844;2023-04-24T09:39:13;15.20;99.90
23305;DHT22;11821;51.456;8.844;2023-04-24T09:44:14;15.20;99.90
23305;DHT22;11821;51.456;8.844;2023-04-24T09:46:41;15.30;99.90
23305;DHT22;11821;51.456;8.844;2023-04-24T09:49:30;15.30;99.90
23305;DHT22;11821;51.456;8.844;2023-04-24T09:52:10;15.10;99.90
23305;DHT22;11821;51.456;8.844;2023-04-24T09:54:37;15.00;99.90
23305;DHT22;11821;51.456;8.844;2023-04-24T09:57:03;14.80;99.90
23305;DHT22;11821;51.456;8.844;2023-04-24T09:59:30;14.90;99.90
23305;DHT22;11821;51.456;8.844;2023-04-24T10:01:57;14.80;99.90
23305;DHT22;11821;51.456;8.844;2023-04-24T10:04:26;14.70;99.90
23305;DHT22;11821;51.456;8.844;2023-04-24T10:06:55;14.70;99.90
23305;DHT22;11821;51.456;8.844;2023-04-24T10:09:26;14.80;99.90
23305;DHT22;11821;51.456;8.844;2023-04-24T10:11:54;14.40;99.90
23305;DHT22;11821;51.456;8.844;2023-04-24T10:14:22;14.50;99.90
23305;DHT22;11821;51.456;8.844;2023-04-24T10:16:50;14.70;99.90
23305;DHT22;11821;51.456;8.844;2023-04-24T10:19:18;14.70;99.90
23305;DHT22;11821;51.456;8.844;2023-04-24T10:21:45;14.60;99.90
23305;DHT22;11821;51.456;8.844;2023-04-24T10:24:18;14.80;99.90
23305;DHT22;11821;51.456;8.844;2023-04-24T10:26:48;15.10;99.90
23305;DHT22;11821;51.456;8.844;2023-04-24T10:29:16;15.10;99.90
23305;DHT22;11821;51.456;8.844;2023-04-24T10:31:43;14.90;99.90
23305;DHT22;11821;51.456;8.844;2023-04-24T10:34:15;14.80;99.90
23305;DHT22;11821;51.456;8.844;2023-04-24T10:36:46;15.00;99.90
23305;DHT22;11821;51.456;8.844;2023-04-24T10:39:14;14.80;99.90
23305;DHT22;11821;51.456;8.844;2023-04-24T10:41:42;14.70;99.90
23305;DHT22;11821;51.456;8.844;2023-04-24T10:44:09;14.50;99.90
23305;DHT22;11821;51.456;8.844;2023-04-24T10:46:36;14.40;99.90
23305;DHT22;11821;51.456;8.844;2023-04-24T10:49:07;14.40;99.90
23305;DHT22;11821;51.456;8.844;2023-04-24T10:51:49;14.40;99.90
23305;DHT22;11821;51.456;8.844;2023-04-24T10:54:45;14.60;99.90
23305;DHT22;11821;51.456;8.844;2023-04-24T10:59:45;14.70;99.90
23305;DHT22;11821;51.456;8.844;2023-04-24T11:02:14;14.90;99.90
23305;DHT22;11821;51.456;8.844;2023-04-24T11:04:44;15.20;99.90
23305;DHT22;11821;51.456;8.844;2023-04-24T11:07:13;15.40;99.90
23305;DHT22;11821;51.456;8.844;2023-04-24T11:09:42;15.40;99.90
23305;DHT22;11821;51.456;8.844;2023-04-24T11:12:10;15.50;99.90
23305;DHT22;11821;51.456;8.844;2023-04-24T11:17:33;15.10;99.90
23305;DHT22;11821;51.456;8.844;2023-04-24T11:22:39;14.60;99.90
23305;DHT22;11821;51.456;8.844;2023-04-24T11:25:09;14.60;99.90
23305;DHT22;11821;51.456;8.844;2023-04-24T11:27:44;14.40;99.90
23305;DHT22;11821;51.456;8.844;2023-04-24T11:30:11;14.50;99.90
23305;DHT22;11821;51.456;8.844;2023-04-24T11:32:40;14.60;99.90
23305;DHT22;11821;51.456;8.844;2023-04-24T11:35:08;14.60;99.90
23305;DHT22;11821;51.456;8.844;2023-04-24T11:37:40;14.50;99.90
23305;DHT22;11821;51.456;8.844;2023-04-24T11:40:11;14.80;99.90
23305;DHT22;11821;51.456;8.844;2023-04-24T11:42:40;14.80;99.90
23305;DHT22;11821;51.456;8.844;2023-04-24T11:45:18;15.00;99.90
23305;DHT22;11821;51.456;8.844;2023-04-24T11:47:45;15.00;99.90
23305;DHT22;11821;51.456;8.844;2023-04-24T11:50:13;15.30;99.90
23305;DHT22;11821;51.456;8.844;2023-04-24T11:52:45;15.20;99.90
23305;DHT22;11821;51.456;8.844;2023-04-24T11:57:49;15.30;99.90
23305;DHT22;11821;51.456;8.844;2023-04-24T12:00:27;14.90;99.90
23305;DHT22;11821;51.456;8.844;2023-04-24T12:03:12;14.90;99.90
23305;DHT22;11821;51.456;8.844;2023-04-24T12:05:39;14.40;99.90
23305;DHT22;11821;51.456;8.844;2023-04-24T12:08:06;14.20;99.90
23305;DHT22;11821;51.456;8.844;2023-04-24T12:10:33;13.90;99.90
23305;DHT22;11821;51.456;8.844;2023-04-24T12:12:59;14.00;99.90
23305;DHT22;11821;51.456;8.844;2023-04-24T12:15:26;13.90;99.90
23305;DHT22;11821;51.456;8.844;2023-04-24T12:17:54;14.00;99.90
23305;DHT22;11821;51.456;8.844;2023-04-24T12:20:29;13.80;99.90
23305;DHT22;11821;51.456;8.844;2023-04-24T12:23:00;13.70;99.90
23305;DHT22;11821;51.456;8.844;2023-04-24T12:27:57;13.70;99.90
23305;DHT22;11821;51.456;8.844;2023-04-24T12:33:21;13.70;99.90
23305;DHT22;11821;51.456;8.844;2023-04-24T12:35:51;13.80;99.90
23305;DHT22;11821;51.456;8.844;2023-04-24T12:38:22;14.00;99.90
23305;DHT22;11821;51.456;8.844;2023-04-24T12:43:27;13.90;99.90
23305;DHT22;11821;51.456;8.844;2023-04-24T12:45:54;14.50;99.90
23305;DHT22;11821;51.456;8.844;2023-04-24T12:48:20;14.30;99.90
23305;DHT22;11821;51.456;8.844;2023-04-24T12:50:48;14.10;99.90
23305;DHT22;11821;51.456;8.844;2023-04-24T12:53:15;13.90;99.90
23305;DHT22;11821;51.456;8.844;2023-04-24T12:55:42;14.00;99.90
23305;DHT22;11821;51.456;8.844;2023-04-24T12:58:08;13.90;99.90
23305;DHT22;11821;51.456;8.844;2023-04-24T13:00:34;13.90;99.90
23305;DHT22;11821;51.456;8.844;2023-04-24T13:03:01;13.90;99.90
23305;DHT22;11821;51.456;8.844;2023-04-24T13:05:27;14.20;99.90
23305;DHT22;11821;51.456;8.844;2023-04-24T13:07:54;14.10;99.90
23305;DHT22;11821;51.456;8.844;2023-04-24T13:10:20;14.10;99.90
23305;DHT22;11821;51.456;8.844;2023-04-24T13:12:46;13.90;99.90
23305;DHT22;11821;51.456;8.844;2023-04-24T13:15:13;13.90;99.90
23305;DHT22;11821;51.456;8.844;2023-04-24T13:17:39;14.00;99.90
23305;DHT22;11821;51.456;8.844;2023-04-24T13:22:32;14.00;99.90
23305;DHT22;11821;51.456;8.844;2023-04-24T13:24:59;13.80;99.90
23305;DHT22;11821;51.456;8.844;2023-04-24T13:27:25;13.90;99.90
23305;DHT22;11821;51.456;8.844;2023-04-24T13:29:51;13.90;99.90
23305;DHT22;11821;51.456;8.844;2023-04-24T13:32:18;14.00;99.90
23305;DHT22;11821;51.456;8.844;2023-04-24T13:34:44;14.10;99.90
23305;DHT22;11821;51.456;8.844;2023-04-24T13:37:10;14.40;99.90
23305;DHT22;11821;51.456;8.844;2023-04-24T13:39:37;14.50;99.90
23305;DHT22;11821;51.456;8.844;2023-04-24T13:42:03;14.60;99.90
23305;DHT22;11821;51.456;8.844;2023-04-24T13:44:29;14.70;99.90
23305;DHT22;11821;51.456;8.844;2023-04-24T13:46:58;14.80;99.90
23305;DHT22;11821;51.456;8.844;2023-04-24T13:49:25;14.50;99.90
23305;DHT22;11821;51.456;8.844;2023-04-24T13:51:53;14.20;99.90
23305;DHT22;11821;51.456;8.844;2023-04-24T13:54:19;14.30;99.90
23305;DHT22;11821;51.456;8.844;2023-04-24T13:56:46;14.10;99.90
23305;DHT22;11821;51.456;8.844;2023-04-24T13:59:12;14.10;99.90
23305;DHT22;11821;51.456;8.844;2023-04-24T14:01:39;13.90;99.90
23305;DHT22;11821;51.456;8.844;2023-04-24T14:21:13;13.80;99.90
23305;DHT22;11821;51.456;8.844;2023-04-24T14:23:39;14.30;99.90
23305;DHT22;11821;51.456;8.844;2023-04-24T14:26:06;14.40;99.90
23305;DHT22;11821;51.456;8.844;2023-04-24T14:28:32;14.60;99.90
23305;DHT22;11821;51.456;8.844;2023-04-24T14:30:58;14.60;99.90
23305;DHT22;11821;51.456;8.844;2023-04-24T14:33:24;14.60;99.90
23305;DHT22;11821;51.456;8.844;2023-04-24T14:48:06;14.60;99.90
23305;DHT22;11821;51.456;8.844;2023-04-24T14:50:32;13.70;99.90
23305;DHT22;11821;51.456;8.844;2023-04-24T14:52:59;13.60;99.90
23305;DHT22;11821;51.456;8.844;2023-04-24T14:55:25;13.80;99.90
23305;DHT22;11821;51.456;8.844;2023-04-24T14:57:52;14.00;99.90
23305;DHT22;11821;51.456;8.844;2023-04-24T15:00:19;14.10;99.90
23305;DHT22;11821;51.456;8.844;2023-04-24T15:02:46;14.20;99.90
23305;DHT22;11821;51.456;8.844;2023-04-24T15:05:12;14.20;99.90
23305;DHT22;11821;51.456;8.844;2023-04-24T15:07:39;14.20;99.90
23305;DHT22;11821;51.456;8.844;2023-04-24T15:10:07;14.40;99.90
23305;DHT22;11821;51.456;8.844;2023-04-24T15:12:34;14.40;99.90
23305;DHT22;11821;51.456;8.844;2023-04-24T15:15:01;14.20;99.90
23305;DHT22;11821;51.456;8.844;2023-04-24T15:17:27;14.10;99.90
23305;DHT22;11821;51.456;8.844;2023-04-24T15:19:53;14.00;99.90
23305;DHT22;11821;51.456;8.844;2023-04-24T15:22:20;13.80;99.90
23305;DHT22;11821;51.456;8.844;2023-04-24T15:32:06;13.90;99.90
23305;DHT22;11821;51.456;8.844;2023-04-24T15:34:32;13.50;99.90
23305;DHT22;11821;51.456;8.844;2023-04-24T15:36:59;13.70;99.90
23305;DHT22;11821;51.456;8.844;2023-04-24T15:39:26;13.60;99.90
23305;DHT22;11821;51.456;8.844;2023-04-24T15:41:53;13.60;99.90
23305;DHT22;11821;51.456;8.844;2023-04-24T15:44:21;13.80;99.90
23305;DHT22;11821;51.456;8.844;2023-04-24T15:46:47;14.00;99.90
23305;DHT22;11821;51.456;8.844;2023-04-24T16:21:02;14.10;99.90
23305;DHT22;11821;51.456;8.844;2023-04-24T16:23:28;14.10;99.90
23305;DHT22;11821;51.456;8.844;2023-04-24T16:25:55;14.00;99.90
23305;DHT22;11821;51.456;8.844;2023-04-24T16:40:36;14.20;99.90
23305;DHT22;11821;51.456;8.844;2023-04-24T16:43:02;14.10;99.90
23305;DHT22;11821;51.456;8.844;2023-04-24T16:45:28;14.00;99.90
23305;DHT22;11821;51.456;8.844;2023-04-24T16:47:55;13.90;99.90
23305;DHT22;11821;51.456;8.844;2023-04-24T16:50:21;13.80;99.90
23305;DHT22;11821;51.456;8.844;2023-04-24T16:52:47;13.80;99.90
23305;DHT22;11821;51.456;8.844;2023-04-24T16:55:14;13.40;99.90
23305;DHT22;11821;51.456;8.844;2023-04-24T16:57:40;13.60;99.90
23305;DHT22;11821;51.456;8.844;2023-04-24T17:00:07;13.60;99.90
23305;DHT22;11821;51.456;8.844;2023-04-24T17:02:34;13.50;99.90
23305;DHT22;11821;51.456;8.844;2023-04-24T17:05:00;13.30;99.90
23305;DHT22;11821;51.456;8.844;2023-04-24T17:07:26;13.00;99.90
23305;DHT22;11821;51.456;8.844;2023-04-24T17:09:53;12.90;99.90
23305;DHT22;11821;51.456;8.844;2023-04-24T17:12:19;12.90;99.90
23305;DHT22;11821;51.456;8.844;2023-04-24T17:14:46;12.90;99.90
23305;DHT22;11821;51.456;8.844;2023-04-24T17:17:12;12.90;99.90
23305;DHT22;11821;51.456;8.844;2023-04-24T17:19:39;12.70;99.90
23305;DHT22;11821;51.456;8.844;2023-04-24T17:22:06;12.70;99.90
23305;DHT22;11821;51.456;8.844;2023-04-24T17:24:34;12.50;99.90
23305;DHT22;11821;51.456;8.844;2023-04-24T17:27:00;12.50;99.90
23305;DHT22;11821;51.456;8.844;2023-04-24T17:29:28;12.40;99.90
23305;DHT22;11821;51.456;8.844;2023-04-24T17:31:54;12.30;99.90
23305;DHT22;11821;51.456;8.844;2023-04-24T17:34:20;12.40;99.90
23305;DHT22;11821;51.456;8.844;2023-04-24T17:36:46;12.50;99.90
23305;DHT22;11821;51.456;8.844;2023-04-24T17:39:13;12.40;99.90
23305;DHT22;11821;51.456;8.844;2023-04-24T17:41:39;12.30;99.90
23305;DHT22;11821;51.456;8.844;2023-04-24T17:44:05;12.20;99.90
23305;DHT22;11821;51.456;8.844;2023-04-24T17:46:31;12.30;99.90
23305;DHT22;11821;51.456;8.844;2023-04-24T17:48:58;12.10;99.90
23305;DHT22;11821;51.456;8.844;2023-04-24T17:51:24;12.10;99.90
23305;DHT22;11821;51.456;8.844;2023-04-24T17:53:51;12.10;99.90
23305;DHT22;11821;51.456;8.844;2023-04-24T17:56:17;12.10;99.90
23305;DHT22;11821;51.456;8.844;2023-04-24T17:58:44;12.10;99.90
23305;DHT22;11821;51.456;8.844;2023-04-24T18:01:10;12.10;99.90
23305;DHT22;11821;51.456;8.844;2023-04-24T18:03:37;11.90;99.90
